Terminal Aerodrome Forecast
Issued by NWS

Home | Current Version | Previous Version | Text Only | Print | Product List | Glossary On
Versions: 1 2 3 4 5 6 7 8 9 10 11 12 13
203
FTUS45 KABQ 172320
TAFTCC
TAF
KTCC 172320Z 1800/1824 22009KT P6SM SCT250
     FM180900 25008KT P6SM FEW250
     FM182200 12006KT P6SM BKN250=

USA.gov is the U.S. government's official web portal to all federal, state and local government web resources and services.